Allen, MI

7:00 PM EDT on August 21, 2014 (GMT -0400)
West side Reading Township | Change Station
CLOSE
Current Station
Personal Weather Station
Location: Reading, MI
Elevation: 1031 ft
Nearby Weather Stations

Elev 1031 ft 41.85 °N, 84.80 °W | Updated 12 seconds ago

Scattered Clouds
Scattered Clouds
76.6 °F
Feels Like 78 °F
N
0.0
Wind Variable Wind from West
Gusts 3.0 mph

Today
High -- | Low -- °F
--% Chance of Precip.
Yesterday
High -- | Low -- °F
Precip. -- in
6:53 AM 8:30 PM
Waning Crescent, 12% visible
Pressure 30.00 in
Visibility 10.0 miles
Clouds Scattered Clouds 1700 ft
Heat Index 78 °F
Dew Point 71 °F
Humidity 84%
Rainfall 0.00 in
Snow Depth Not available.
UV 1 out of 12
Pollen 9.00 out of 12
Ozone Good
PM2.5 Moderate
Flu Activity Not available.
METAR KJYM 212254Z AUTO 27004KT 10SM SCT017 25/23 A3000 RMK AO2 T02540227

More Conditions Fewer Conditions

Pressure 30.00 in
Visibility 10.0 miles
Clouds Scattered Clouds 1700 ft
Heat Index 78 °F
Dew Point 71 °F
Humidity 84%
Rainfall 0.00 in
Snow Depth Not available.
UV 1 out of 12
Pollen 9.00 out of 12
Ozone Good
PM2.5 Moderate
Flu Activity Not available.
METAR KJYM 212254Z AUTO 27004KT 10SM SCT017 25/23 A3000 RMK AO2 T02540227

More Conditions Fewer Conditions

10-Day Weather Forecast

Almanac

Astronomy

Aug. 21, 2014 Rise Set
Actual Time 6:53 AM EDT 8:30 PM EDT
Civil Twilight 6:23 AM EDT 8:59 PM EDT
Nautical Twilight 5:48 AM EDT 9:35 PM EDT
Astronomical Twilight 5:09 AM EDT 10:13 PM EDT
Moon 3:21 AM EDT 5:59 PM EDT
Length of Visible Light 14h 36m
Length of Day
13h 37m
Tomorrow will be 2m 36s shorter.
Waning Crescent, 12% of the Moon is Illuminated
Today
Waning Crescent
Aug 25
New
Sep 2
First Quarter
Sep 8
Full
Sep 15
Last Quarter

Today's Extremes

State Highs State Lows

Community

WunderPhotos

Upload Photos

1,746,047 photos uploaded!

WunderBlogs® & News

Nearby

Air Quality

  Air Quality AQ Index Pollutant
Yesterday Good
OZONE
Yesterday Good
PM2.5
Current Moderate
PM2.5
Current Good
OZONE
Thursday Moderate
PM2.5
Thursday Good
OZONE
Friday Moderate
PM2.5
Friday Good
OZONE
Saturday Moderate
PM2.5
Saturday Good
OZONE
Sunday Moderate
OZONE
Sunday Moderate
PM2.5

Snow Depth

Station Depth Elevation
No new snow has been reported.

Earthquake Activity

City Distance Mag. Time & Date
No recent earthquake activity has been reported nearby.
Minimum magnitude displayed is 2.5.

Coastal Water Temperatures

Place Temperature
No Stations Reporting

Nearby Weather Stations